createdAt,value
2019-05-21T00:02:08.861Z,8.18
2019-05-21T00:04:35.618Z,8.16
2019-05-21T00:07:02.525Z,8.14
2019-05-21T00:09:29.326Z,8.15
2019-05-21T00:11:56.097Z,8.18
2019-05-21T00:14:23.003Z,8.17
2019-05-21T00:16:49.747Z,8.12
2019-05-21T00:19:16.494Z,8.08
2019-05-21T00:21:43.284Z,8.11
2019-05-21T00:24:10.036Z,8.10
2019-05-21T00:26:36.803Z,8.08
2019-05-21T00:29:59.320Z,8.04
2019-05-21T00:33:22.147Z,8.07
2019-05-21T00:36:44.694Z,7.93
2019-05-21T00:40:07.160Z,7.85
2019-05-21T00:42:39.381Z,7.76
2019-05-21T00:45:09.514Z,7.76
2019-05-21T00:47:36.238Z,7.83
2019-05-21T00:50:06.360Z,7.86
2019-05-21T00:52:33.086Z,7.90
2019-05-21T00:54:59.853Z,7.93
2019-05-21T00:57:26.650Z,7.93
2019-05-21T00:59:53.455Z,7.95
2019-05-21T01:02:20.147Z,7.95
2019-05-21T01:04:59.476Z,7.97
2019-05-21T01:07:15.507Z,7.96
2019-05-21T01:09:42.243Z,7.98
2019-05-21T01:12:09.177Z,7.97
2019-05-21T01:14:35.891Z,7.98
2019-05-21T01:17:02.631Z,7.98
2019-05-21T01:19:29.548Z,7.99
2019-05-21T01:21:56.261Z,7.98
2019-05-21T01:24:23.002Z,7.97
2019-05-21T01:26:49.787Z,7.95
2019-05-21T01:29:16.545Z,7.91
2019-05-21T01:31:43.269Z,7.91
2019-05-21T01:34:11.549Z,7.90
2019-05-21T01:36:38.680Z,7.91
2019-05-21T01:39:05.651Z,7.93
2019-05-21T01:41:32.493Z,7.91
2019-05-21T01:43:59.291Z,7.90
2019-05-21T01:46:26.041Z,7.89
2019-05-21T01:48:52.822Z,7.89
2019-05-21T01:51:19.549Z,7.88
2019-05-21T01:53:46.351Z,7.87
2019-05-21T01:56:13.285Z,7.85
2019-05-21T01:58:40.106Z,7.86
2019-05-21T02:01:06.844Z,7.87
2019-05-21T02:03:33.633Z,7.87
2019-05-21T02:06:00.372Z,7.83
2019-05-21T02:08:27.171Z,7.82
2019-05-21T02:10:54.085Z,7.78
2019-05-21T02:13:20.972Z,7.80
2019-05-21T02:15:47.782Z,7.81
2019-05-21T02:18:14.554Z,7.83
2019-05-21T02:20:41.298Z,7.86
2019-05-21T02:23:08.085Z,7.87
2019-05-21T02:25:34.825Z,7.83
2019-05-21T02:28:01.680Z,7.82
2019-05-21T02:30:28.416Z,7.82
2019-05-21T02:32:55.214Z,7.83
2019-05-21T02:35:21.961Z,7.81
2019-05-21T02:37:48.694Z,7.79
2019-05-21T02:40:16.372Z,7.82
2019-05-21T02:42:43.116Z,7.81
2019-05-21T02:45:10.835Z,7.80
2019-05-21T02:47:37.590Z,7.81
2019-05-21T02:50:06.790Z,7.81
2019-05-21T02:52:33.521Z,7.82
2019-05-21T02:55:00.409Z,7.76
2019-05-21T02:57:27.160Z,7.80
2019-05-21T02:59:53.966Z,7.82
2019-05-21T03:02:20.727Z,7.80
2019-05-21T03:04:47.545Z,7.80
2019-05-21T03:07:14.292Z,7.80
2019-05-21T03:09:41.081Z,7.76
2019-05-21T03:12:07.928Z,7.74
2019-05-21T03:14:34.681Z,7.74
2019-05-21T03:17:01.399Z,7.76
2019-05-21T03:19:28.201Z,7.78
2019-05-21T03:21:54.988Z,7.79
2019-05-21T03:24:21.776Z,7.78
2019-05-21T03:26:48.509Z,7.79
2019-05-21T03:29:15.307Z,7.78
2019-05-21T03:31:42.037Z,7.76
2019-05-21T03:34:08.836Z,7.73
2019-05-21T03:36:35.563Z,7.76
2019-05-21T03:39:02.464Z,7.77
2019-05-21T03:41:29.203Z,7.81
2019-05-21T03:43:56.041Z,7.84
2019-05-21T03:46:22.755Z,7.80
2019-05-21T03:48:49.584Z,7.82
2019-05-21T03:51:17.190Z,7.79
2019-05-21T03:53:43.997Z,7.79
2019-05-21T03:56:10.734Z,7.79
2019-05-21T03:58:37.521Z,7.78
2019-05-21T04:01:04.255Z,7.81
2019-05-21T04:03:31.009Z,7.79
2019-05-21T04:05:57.800Z,7.78
2019-05-21T04:08:24.529Z,7.79
2019-05-21T04:10:51.332Z,7.80
2019-05-21T04:13:18.120Z,7.79
2019-05-21T04:15:44.888Z,7.78
2019-05-21T04:18:11.684Z,7.79
2019-05-21T04:20:38.429Z,7.83
2019-05-21T04:23:05.176Z,7.83
2019-05-21T04:25:31.966Z,7.81
2019-05-21T04:27:58.720Z,7.88
2019-05-21T04:30:25.515Z,7.99
2019-05-21T04:32:52.259Z,8.01
2019-05-21T04:35:19.064Z,7.99
2019-05-21T04:37:45.823Z,7.97
2019-05-21T04:40:12.942Z,8.02
2019-05-21T04:42:39.691Z,8.02
2019-05-21T04:45:07.003Z,8.04
2019-05-21T04:47:33.758Z,8.03
2019-05-21T04:50:00.562Z,8.01
2019-05-21T04:52:27.341Z,7.99
2019-05-21T04:54:54.144Z,8.06
2019-05-21T04:57:20.895Z,8.07
2019-05-21T04:59:47.697Z,8.06
2019-05-21T05:02:14.442Z,8.07
2019-05-21T05:04:41.270Z,8.15
2019-05-21T05:07:08.015Z,8.19
2019-05-21T05:09:34.817Z,8.18
2019-05-21T05:12:01.577Z,8.21
2019-05-21T05:14:28.374Z,8.24
2019-05-21T05:16:55.099Z,8.23
2019-05-21T05:19:21.893Z,8.24
2019-05-21T05:21:48.624Z,8.26
2019-05-21T05:24:15.352Z,8.31
2019-05-21T05:26:42.149Z,8.32
2019-05-21T05:29:08.893Z,8.34
2019-05-21T05:31:35.699Z,8.34
2019-05-21T05:34:02.595Z,8.40
2019-05-21T05:36:29.689Z,8.45
2019-05-21T05:38:56.452Z,8.50
2019-05-21T05:41:23.188Z,8.54
2019-05-21T05:43:50.066Z,8.58
2019-05-21T05:46:16.838Z,8.65
2019-05-21T05:48:43.598Z,8.67
2019-05-21T05:51:10.377Z,8.68
2019-05-21T05:53:37.121Z,8.76
2019-05-21T05:56:03.881Z,8.75
2019-05-21T05:58:30.761Z,8.82
2019-05-21T06:00:57.495Z,8.85
2019-05-21T06:03:24.268Z,8.95
2019-05-21T06:05:51.068Z,8.98
2019-05-21T06:08:17.799Z,9.02
2019-05-21T06:10:44.536Z,9.06
2019-05-21T06:13:11.483Z,9.14
2019-05-21T06:15:38.185Z,9.22
2019-05-21T06:18:04.930Z,9.25
2019-05-21T06:20:31.750Z,9.28
2019-05-21T06:22:58.484Z,9.32
2019-05-21T06:25:25.644Z,9.40
2019-05-21T06:27:52.468Z,9.48
2019-05-21T06:30:19.220Z,9.55
2019-05-21T06:32:46.011Z,9.61
2019-05-21T06:35:13.388Z,9.63
2019-05-21T06:37:40.143Z,9.66
2019-05-21T06:40:07.377Z,9.72
2019-05-21T06:42:34.194Z,9.77
2019-05-21T06:45:01.090Z,9.82
2019-05-21T06:47:27.878Z,9.86
2019-05-21T06:49:54.704Z,9.87
2019-05-21T06:52:21.434Z,9.90
2019-05-21T06:54:48.170Z,9.90
2019-05-21T06:57:14.975Z,9.89
2019-05-21T06:59:41.723Z,9.86
2019-05-21T07:02:08.494Z,9.75
2019-05-21T07:04:35.501Z,9.59
2019-05-21T07:07:02.334Z,9.64
2019-05-21T07:09:29.076Z,9.74
2019-05-21T07:11:55.978Z,9.78
2019-05-21T07:14:22.731Z,9.88
2019-05-21T07:16:49.465Z,9.88
2019-05-21T07:19:16.388Z,9.95
2019-05-21T07:21:43.118Z,10.02
2019-05-21T07:24:09.884Z,10.07
2019-05-21T07:26:36.773Z,10.13
2019-05-21T07:29:03.550Z,10.26
2019-05-21T07:31:30.284Z,10.32
2019-05-21T07:33:57.179Z,10.35
2019-05-21T07:36:23.941Z,10.32
2019-05-21T07:38:53.794Z,10.31
2019-05-21T07:41:20.387Z,10.36
2019-05-21T07:43:47.371Z,10.39
2019-05-21T07:46:14.145Z,10.48
2019-05-21T07:48:40.950Z,10.54
2019-05-21T07:51:07.704Z,10.60
2019-05-21T07:53:34.460Z,10.65
2019-05-21T07:56:01.266Z,10.66
2019-05-21T07:58:28.010Z,10.80
2019-05-21T08:00:54.748Z,10.84
2019-05-21T08:03:21.643Z,10.95
2019-05-21T08:05:48.392Z,11.05
2019-05-21T08:08:15.137Z,11.14
2019-05-21T08:10:41.930Z,11.18
2019-05-21T08:13:08.693Z,11.22
2019-05-21T08:15:35.418Z,11.36
2019-05-21T08:18:02.228Z,11.42
2019-05-21T08:20:29.067Z,11.39
2019-05-21T08:22:55.803Z,11.49
2019-05-21T08:25:22.687Z,11.55
2019-05-21T08:27:49.946Z,11.61
2019-05-21T08:30:17.417Z,11.65
2019-05-21T08:32:44.299Z,11.65
2019-05-21T08:35:13.503Z,11.68
2019-05-21T08:37:40.207Z,11.76
2019-05-21T08:40:08.293Z,11.76
2019-05-21T08:42:35.333Z,11.84
2019-05-21T08:45:04.431Z,11.84
2019-05-21T08:47:31.454Z,11.79
2019-05-21T08:49:58.215Z,11.78
2019-05-21T08:52:24.959Z,11.82
2019-05-21T08:54:55.571Z,11.76
2019-05-21T08:57:21.305Z,11.79
2019-05-21T08:59:48.126Z,11.83
2019-05-21T09:02:15.608Z,11.90
2019-05-21T09:04:46.329Z,11.81
2019-05-21T09:07:11.114Z,11.89
2019-05-21T09:09:49.082Z,11.98
2019-05-21T09:12:06.751Z,12.04
2019-05-21T09:14:33.489Z,12.09
2019-05-21T09:17:01.681Z,12.14
2019-05-21T09:19:28.403Z,12.11
2019-05-21T09:21:55.249Z,12.16
2019-05-21T09:24:22.143Z,12.21
2019-05-21T09:26:48.893Z,12.26
2019-05-21T09:29:15.644Z,12.32
2019-05-21T09:31:42.435Z,12.38
2019-05-21T09:34:09.149Z,12.40
2019-05-21T09:36:35.882Z,12.41
2019-05-21T09:39:05.866Z,12.47
2019-05-21T09:41:32.613Z,12.47
2019-05-21T09:43:59.394Z,12.58
2019-05-21T09:46:26.200Z,12.47
2019-05-21T09:48:56.021Z,12.59
2019-05-21T09:51:21.506Z,12.71
2019-05-21T09:53:48.428Z,12.78
2019-05-21T09:56:15.195Z,12.88
2019-05-21T09:58:41.956Z,12.86
2019-05-21T10:01:08.745Z,12.96
2019-05-21T10:03:35.805Z,13.01
2019-05-21T10:06:02.530Z,13.07
2019-05-21T10:08:29.320Z,13.16
2019-05-21T10:10:56.100Z,13.17
2019-05-21T10:13:22.819Z,13.19
2019-05-21T10:15:49.641Z,13.22
2019-05-21T10:18:16.364Z,13.10
2019-05-21T10:20:43.083Z,13.12
2019-05-21T10:23:09.983Z,13.10
2019-05-21T10:25:36.851Z,13.14
2019-05-21T10:28:03.682Z,13.14
2019-05-21T10:30:30.630Z,13.18
2019-05-21T10:32:57.317Z,13.25
2019-05-21T10:35:24.082Z,13.33
2019-05-21T10:37:54.929Z,13.38
2019-05-21T10:40:19.640Z,13.42
2019-05-21T10:42:46.390Z,13.48
2019-05-21T10:45:13.438Z,13.56
2019-05-21T10:47:40.152Z,13.50
2019-05-21T10:50:07.037Z,13.54
2019-05-21T10:52:34.009Z,13.63
2019-05-21T10:55:00.748Z,13.66
2019-05-21T10:57:27.527Z,13.81
2019-05-21T10:59:54.758Z,13.88
2019-05-21T11:02:24.670Z,13.90
2019-05-21T11:04:51.719Z,13.97
2019-05-21T11:07:18.512Z,13.93
2019-05-21T11:09:45.276Z,13.93
2019-05-21T11:12:11.994Z,13.94
2019-05-21T11:14:38.896Z,13.95
2019-05-21T11:17:05.735Z,14.00
2019-05-21T11:19:33.211Z,14.02
2019-05-21T11:22:00.077Z,13.96
2019-05-21T11:24:26.809Z,13.94
2019-05-21T11:26:53.562Z,13.87
2019-05-21T11:29:20.470Z,13.98
2019-05-21T11:31:56.388Z,13.99
2019-05-21T11:34:15.786Z,13.89
2019-05-21T11:36:42.607Z,13.92
2019-05-21T11:39:09.462Z,13.90
2019-05-21T11:41:36.188Z,13.81
2019-05-21T11:44:03.518Z,13.84
2019-05-21T11:46:30.310Z,13.95
2019-05-21T11:48:57.064Z,13.97
2019-05-21T11:51:23.847Z,13.91
2019-05-21T11:53:50.593Z,13.93
2019-05-21T11:56:17.327Z,13.93
2019-05-21T11:58:44.451Z,13.84
2019-05-21T12:01:11.190Z,13.92
2019-05-21T12:03:37.924Z,13.80
2019-05-21T12:06:04.730Z,13.85
2019-05-21T12:08:31.476Z,13.79
2019-05-21T12:10:58.212Z,13.77
2019-05-21T12:13:25.146Z,13.68
2019-05-21T12:15:51.883Z,13.74
2019-05-21T12:18:18.645Z,13.78
2019-05-21T12:20:45.564Z,13.71
2019-05-21T12:23:12.310Z,13.69
2019-05-21T12:25:39.076Z,13.71
2019-05-21T12:28:05.893Z,13.75
2019-05-21T12:30:32.623Z,13.76
2019-05-21T12:32:59.405Z,13.79
2019-05-21T12:35:26.304Z,13.72
2019-05-21T12:38:12.778Z,13.81
2019-05-21T12:40:39.596Z,13.84
2019-05-21T12:43:06.313Z,13.81
2019-05-21T12:45:33.057Z,13.88
2019-05-21T12:47:59.913Z,13.76
2019-05-21T12:50:26.638Z,13.88
2019-05-21T12:52:53.393Z,13.85
2019-05-21T12:55:20.337Z,13.90
2019-05-21T12:57:47.030Z,13.89
2019-05-21T13:00:14.495Z,13.87
2019-05-21T13:02:41.308Z,13.88
2019-05-21T13:05:11.268Z,13.83
2019-05-21T13:07:36.788Z,13.91
2019-05-21T13:10:05.618Z,13.92
2019-05-21T13:12:32.357Z,13.80
2019-05-21T13:14:59.131Z,13.88
2019-05-21T13:17:25.920Z,13.91
2019-05-21T13:19:52.654Z,13.87
2019-05-21T13:22:19.399Z,13.95
2019-05-21T13:24:46.319Z,13.92
2019-05-21T13:27:13.053Z,13.88
2019-05-21T13:29:39.814Z,13.97
2019-05-21T13:32:06.586Z,13.92
2019-05-21T13:34:33.639Z,14.02
2019-05-21T13:37:00.376Z,14.01
2019-05-21T13:39:27.219Z,14.07
2019-05-21T13:41:53.971Z,14.02
2019-05-21T13:44:20.727Z,13.97
2019-05-21T13:46:47.565Z,13.95
2019-05-21T13:49:14.327Z,14.02
2019-05-21T13:51:41.161Z,14.03
2019-05-21T13:54:08.114Z,14.04
2019-05-21T13:56:34.820Z,14.00
2019-05-21T13:59:01.983Z,14.10
2019-05-21T14:01:40.164Z,14.22
2019-05-21T14:03:57.452Z,14.26
2019-05-21T14:06:24.201Z,14.29
2019-05-21T14:08:51.293Z,14.42
2019-05-21T14:11:18.027Z,14.41
2019-05-21T14:13:44.792Z,14.46
2019-05-21T14:16:11.816Z,14.40
2019-05-21T14:18:40.621Z,14.37
2019-05-21T14:21:07.550Z,14.36
2019-05-21T14:23:34.372Z,14.43
2019-05-21T14:26:01.183Z,14.45
2019-05-21T14:28:28.435Z,14.40
2019-05-21T14:30:55.362Z,14.40
2019-05-21T14:33:22.203Z,14.46
2019-05-21T14:35:50.260Z,14.48
2019-05-21T14:38:17.302Z,14.47
2019-05-21T14:40:44.013Z,14.59
2019-05-21T14:43:10.774Z,14.53
2019-05-21T14:45:37.643Z,14.58
2019-05-21T14:48:04.429Z,14.47
2019-05-21T14:50:31.999Z,14.52
2019-05-21T14:52:59.073Z,14.39
2019-05-21T14:55:25.803Z,14.38
2019-05-21T14:57:52.720Z,14.44
2019-05-21T15:00:22.065Z,14.50
2019-05-21T15:02:49.078Z,14.45
2019-05-21T15:05:16.764Z,14.60
2019-05-21T15:07:43.694Z,14.67
2019-05-21T15:10:11.260Z,14.63
2019-05-21T15:12:37.977Z,14.73
2019-05-21T15:15:06.020Z,14.82
2019-05-21T15:17:32.816Z,14.83
2019-05-21T15:19:59.655Z,14.87
2019-05-21T15:22:26.840Z,14.92
2019-05-21T15:24:53.576Z,14.98
2019-05-21T15:27:20.323Z,14.97
2019-05-21T15:29:47.137Z,14.84
2019-05-21T15:32:13.877Z,14.81
2019-05-21T15:34:40.677Z,14.72
2019-05-21T15:37:07.604Z,14.65
2019-05-21T15:39:34.348Z,14.74
2019-05-21T15:42:01.073Z,14.57
2019-05-21T15:44:27.881Z,14.54
2019-05-21T15:46:54.621Z,14.55
2019-05-21T15:49:35.162Z,14.71
2019-05-21T15:51:50.089Z,14.72
2019-05-21T15:54:16.830Z,14.66
2019-05-21T15:56:43.569Z,14.82
2019-05-21T15:59:10.639Z,14.91
2019-05-21T16:01:40.575Z,14.98
2019-05-21T16:04:06.942Z,15.03
2019-05-21T16:06:33.841Z,15.16
2019-05-21T16:09:00.598Z,15.14
2019-05-21T16:11:29.109Z,15.04
2019-05-21T16:13:56.083Z,15.01
2019-05-21T16:16:22.825Z,14.96
2019-05-21T16:18:49.550Z,14.98
2019-05-21T16:21:16.897Z,14.94
2019-05-21T16:23:43.610Z,14.97
2019-05-21T16:26:10.344Z,14.93
2019-05-21T16:28:37.348Z,15.00
2019-05-21T16:31:04.370Z,14.87
2019-05-21T16:33:38.019Z,14.79
2019-05-21T16:36:00.302Z,14.71
2019-05-21T16:38:27.138Z,14.69
2019-05-21T16:40:53.902Z,14.56
2019-05-21T16:43:21.094Z,14.48
2019-05-21T16:45:47.837Z,14.44
2019-05-21T16:48:14.745Z,14.42
2019-05-21T16:50:41.780Z,14.44
2019-05-21T16:53:08.731Z,14.37
2019-05-21T16:55:35.586Z,14.29
2019-05-21T16:58:02.386Z,14.23
2019-05-21T17:00:29.417Z,14.19
2019-05-21T17:02:56.348Z,14.20
2019-05-21T17:05:23.345Z,14.12
2019-05-21T17:07:50.088Z,14.10
2019-05-21T17:10:18.874Z,14.14
2019-05-21T17:12:45.734Z,14.13
2019-05-21T17:15:19.035Z,14.10
2019-05-21T17:17:45.756Z,14.09
2019-05-21T17:20:15.266Z,13.99
2019-05-21T17:22:42.012Z,13.94
2019-05-21T17:25:09.194Z,13.79
2019-05-21T17:27:36.188Z,13.78
2019-05-21T17:30:09.017Z,13.78
2019-05-21T17:32:36.062Z,13.73
2019-05-21T17:35:07.051Z,13.65
2019-05-21T17:37:44.751Z,13.58
2019-05-21T17:40:13.913Z,13.46
2019-05-21T17:42:41.247Z,13.33
2019-05-21T17:45:09.086Z,13.17
2019-05-21T17:47:37.487Z,13.28
2019-05-21T17:50:08.121Z,13.35
2019-05-21T17:52:38.056Z,13.24
2019-05-21T17:55:05.106Z,13.17
2019-05-21T17:57:31.871Z,13.09
2019-05-21T17:59:58.672Z,13.09
2019-05-21T18:02:25.613Z,13.05
2019-05-21T18:04:52.362Z,12.94
2019-05-21T18:07:20.385Z,12.94
2019-05-21T18:09:47.493Z,12.84
2019-05-21T18:12:14.678Z,12.87
2019-05-21T18:14:41.558Z,12.77
2019-05-21T18:17:08.400Z,12.81
2019-05-21T18:19:35.944Z,12.90
2019-05-21T18:22:03.723Z,12.97
2019-05-21T18:24:30.557Z,12.87
2019-05-21T18:26:57.683Z,12.69
2019-05-21T18:29:24.872Z,12.67
2019-05-21T18:31:51.614Z,12.76
2019-05-21T18:34:18.653Z,12.71
2019-05-21T18:36:45.564Z,12.69
2019-05-21T18:39:12.393Z,12.58
2019-05-21T18:41:39.242Z,12.44
2019-05-21T18:44:06.043Z,12.43
2019-05-21T18:46:32.771Z,12.38
2019-05-21T18:48:59.485Z,12.44
2019-05-21T18:51:26.305Z,12.53
2019-05-21T18:53:53.056Z,12.41
2019-05-21T18:56:19.781Z,12.42
2019-05-21T18:58:46.774Z,12.45
2019-05-21T19:01:13.807Z,12.42
2019-05-21T19:03:40.848Z,12.29
2019-05-21T19:06:07.618Z,12.26
2019-05-21T19:08:34.345Z,12.30
2019-05-21T19:11:01.078Z,12.33
2019-05-21T19:13:28.369Z,12.33
2019-05-21T19:15:55.233Z,12.26
2019-05-21T19:18:22.078Z,12.12
2019-05-21T19:20:50.075Z,12.21
2019-05-21T19:23:17.280Z,12.15
2019-05-21T19:25:44.022Z,12.21
2019-05-21T19:28:11.024Z,12.13
2019-05-21T19:30:38.157Z,12.12
2019-05-21T19:33:05.702Z,12.10
2019-05-21T19:35:33.314Z,12.04
2019-05-21T19:38:00.214Z,12.06
2019-05-21T19:40:27.051Z,11.98
2019-05-21T19:42:55.561Z,11.91
2019-05-21T19:45:22.493Z,11.86
2019-05-21T19:47:49.410Z,11.84
2019-05-21T19:50:16.587Z,11.78
2019-05-21T19:52:43.368Z,11.71
2019-05-21T19:55:10.504Z,11.70
2019-05-21T19:57:37.418Z,11.69
2019-05-21T20:00:06.986Z,11.65
2019-05-21T20:02:33.969Z,11.61
2019-05-21T20:05:01.178Z,11.58
2019-05-21T20:07:28.358Z,11.58
2019-05-21T20:09:55.519Z,11.56
2019-05-21T20:12:22.623Z,11.56
2019-05-21T20:14:49.686Z,11.54
2019-05-21T20:17:17.451Z,11.49
2019-05-21T20:19:44.801Z,11.45
2019-05-21T20:22:11.539Z,11.44
2019-05-21T20:24:39.273Z,11.40
2019-05-21T20:27:06.352Z,11.36
2019-05-21T20:29:53.137Z,11.33
2019-05-21T20:32:19.909Z,11.31
2019-05-21T20:34:46.650Z,11.29
2019-05-21T20:37:13.369Z,11.26
2019-05-21T20:39:40.553Z,11.24
2019-05-21T20:42:08.014Z,11.22
2019-05-21T20:44:34.727Z,11.18
2019-05-21T20:47:01.663Z,11.14
2019-05-21T20:49:28.388Z,11.12
2019-05-21T20:51:55.473Z,11.07
2019-05-21T20:54:22.850Z,11.02
2019-05-21T20:56:50.022Z,11.03
2019-05-21T20:59:16.777Z,11.00
2019-05-21T21:01:43.848Z,10.96
2019-05-21T21:04:10.614Z,10.96
2019-05-21T21:06:38.348Z,10.87
2019-05-21T21:09:06.728Z,10.85
2019-05-21T21:11:33.598Z,10.79
2019-05-21T21:14:15.368Z,10.80
2019-05-21T21:16:29.264Z,10.77
2019-05-21T21:18:56.088Z,10.71
2019-05-21T21:21:23.311Z,10.68
2019-05-21T21:23:50.513Z,10.62
2019-05-21T21:26:17.441Z,10.62
2019-05-21T21:28:44.580Z,10.56
2019-05-21T21:31:11.706Z,10.56
2019-05-21T21:33:38.538Z,10.52
2019-05-21T21:36:05.369Z,10.52
2019-05-21T21:38:33.269Z,10.50
2019-05-21T21:41:00.119Z,10.53
2019-05-21T21:43:27.076Z,10.48
2019-05-21T21:45:53.988Z,10.45
2019-05-21T21:48:20.743Z,10.45
2019-05-21T21:50:48.076Z,10.42
2019-05-21T21:53:15.026Z,10.41
2019-05-21T21:55:41.785Z,10.42
2019-05-21T21:58:08.614Z,10.36
2019-05-21T22:00:47.479Z,10.36
2019-05-21T22:03:16.031Z,10.38
2019-05-21T22:05:42.975Z,10.29
2019-05-21T22:08:09.856Z,10.12
2019-05-21T22:10:37.989Z,10.12
2019-05-21T22:13:05.040Z,9.95
2019-05-21T22:15:32.031Z,10.03
2019-05-21T22:17:58.773Z,10.06
2019-05-21T22:20:25.507Z,10.03
2019-05-21T22:22:52.461Z,10.02
2019-05-21T22:25:19.184Z,10.24
2019-05-21T22:27:45.923Z,10.26
2019-05-21T22:30:13.065Z,10.40
2019-05-21T22:32:39.777Z,10.52
2019-05-21T22:35:06.632Z,10.50
2019-05-21T22:37:33.444Z,10.54
2019-05-21T22:40:00.375Z,10.55
2019-05-21T22:42:27.509Z,10.52
2019-05-21T22:45:07.576Z,10.50
2019-05-21T22:47:23.253Z,10.53
2019-05-21T22:49:50.005Z,10.53
2019-05-21T22:52:16.810Z,10.55
2019-05-21T22:54:43.690Z,10.58
2019-05-21T22:57:10.422Z,10.61
2019-05-21T22:59:37.421Z,10.47
2019-05-21T23:02:04.252Z,10.46
2019-05-21T23:04:30.970Z,10.45
2019-05-21T23:06:57.857Z,10.38
2019-05-21T23:09:24.704Z,10.29
2019-05-21T23:11:51.644Z,10.19
2019-05-21T23:14:18.468Z,10.11
2019-05-21T23:16:45.132Z,10.03
2019-05-21T23:22:41.591Z,9.85
2019-05-21T23:25:09.756Z,9.68
2019-05-21T23:27:36.530Z,9.66
2019-05-21T23:30:06.457Z,9.64
2019-05-21T23:32:33.228Z,9.64
2019-05-21T23:35:00.203Z,9.60
2019-05-21T23:37:27.014Z,9.54
2019-05-21T23:39:53.825Z,9.53
2019-05-21T23:42:29.100Z,9.50
2019-05-21T23:44:49.847Z,9.43
2019-05-21T23:47:16.489Z,9.40
2019-05-21T23:49:43.266Z,9.35
2019-05-21T23:52:10.089Z,9.32
2019-05-21T23:54:37.092Z,9.27
2019-05-21T23:57:05.595Z,9.24
2019-05-21T23:59:32.323Z,9.22
